Time;durP1;ratioP1;P1;durP2;ratioP2;P2;SDS_P1;SDS_P2;PMS_P1;PMS_P2;Temp;Humidity;BMP_temperature;BMP_pressure;BME280_temperature;BME280_humidity;BME280_pressure;Samples;Min_cycle;Max_cycle;Signal;HPM_P1;HPM_P2
2022/10/01 00:03:46;;;;;;;;;;;14.30;99.90;;;12.39;100.00;99956.75;10502940;28;20382;-84
2022/10/01 00:08:49;;;;;;;;;;;14.30;99.90;;;12.40;100.00;99946.91;10508576;28;20375;-84
2022/10/01 00:13:53;;;;;;;;;;;14.40;99.90;;;12.38;100.00;100013.72;10526066;28;20391;-84
2022/10/01 00:18:56;;;;;;;;;;;14.30;99.90;;;12.35;100.00;99955.44;10514026;28;19929;-88
2022/10/01 00:24:04;;;;;;;;;;;14.30;99.90;;;12.33;100.00;99944.97;10521432;28;19929;-87
2022/10/01 00:29:12;;;;;;;;;;;14.30;99.90;;;12.30;100.00;99947.22;10541378;28;19928;-86
2022/10/01 00:34:15;;;;;;;;;;;14.30;99.90;;;12.31;100.00;99955.00;10523011;28;19935;-85
2022/10/01 00:39:18;;;;;;;;;;;14.30;99.90;;;12.34;100.00;99943.13;10525511;28;20391;-85
2022/10/01 00:44:39;;;;;;;;;;;14.30;99.90;;;12.35;100.00;99934.13;10542272;28;19928;-85
2022/10/01 00:49:42;;;;;;;;;;;14.30;99.90;;;12.36;100.00;99954.47;10493806;28;19936;-84
2022/10/01 00:55:03;;;;;;;;;;;14.30;99.90;;;12.29;100.00;99964.19;10500464;28;19929;-84
2022/10/01 01:00:08;;;;;;;;;;;14.20;99.90;;;12.28;100.00;99890.59;10518116;28;19928;-84
2022/10/01 01:05:12;;;;;;;;;;;14.20;99.90;;;12.27;100.00;99920.91;10533066;28;19932;-84
2022/10/01 01:10:26;;;;;;;;;;;14.20;99.90;;;12.29;100.00;99938.38;10526201;28;19928;-84
2022/10/01 01:15:45;;;;;;;;;;;14.20;99.90;;;12.31;100.00;99956.84;10538356;28;19929;-84
2022/10/01 01:21:07;;;;;;;;;;;14.20;99.90;;;12.29;100.00;100012.13;10516467;28;19975;-84
2022/10/01 01:26:30;;;;;;;;;;;14.10;99.90;;;12.30;100.00;99928.56;10540573;28;19928;-84
2022/10/01 01:31:38;;;;;;;;;;;14.10;99.90;;;12.35;100.00;99894.16;10535997;28;19929;-84
2022/10/01 01:36:46;;;;;;;;;;;14.20;99.90;;;12.39;100.00;99918.59;10539337;28;20315;-83
2022/10/01 01:41:53;;;;;;;;;;;14.20;99.90;;;12.45;100.00;99925.84;10502518;28;19928;-83
2022/10/01 01:46:56;;;;;;;;;;;14.30;99.90;;;12.48;100.00;99939.66;10537256;28;19928;-83
2022/10/01 01:52:14;;;;;;;;;;;14.30;99.90;;;12.51;100.00;99925.09;10523150;28;19982;-83
2022/10/01 01:57:19;;;;;;;;;;;14.40;99.90;;;12.57;100.00;99933.19;10540229;28;20410;-83
2022/10/01 02:02:31;;;;;;;;;;;14.50;99.90;;;12.60;100.00;99934.66;10535860;28;19929;-83
2022/10/01 02:07:50;;;;;;;;;;;14.50;99.90;;;12.61;100.00;99938.97;10519492;28;19983;-84
2022/10/01 02:13:37;;;;;;;;;;;14.50;99.90;;;12.63;100.00;99930.78;10513491;28;19935;-84
2022/10/01 02:18:49;;;;;;;;;;;14.50;99.90;;;12.63;100.00;99928.13;10515644;28;19928;-84
2022/10/01 02:24:00;;;;;;;;;;;14.50;99.90;;;12.64;100.00;99933.25;10509378;28;19928;-84
2022/10/01 02:29:07;;;;;;;;;;;14.60;99.90;;;12.64;100.00;99940.44;10526028;28;19929;-83
2022/10/01 02:34:14;;;;;;;;;;;14.60;99.90;;;12.60;100.00;99937.31;10525581;28;19928;-84
2022/10/01 02:39:22;;;;;;;;;;;14.60;99.90;;;12.59;100.00;99935.66;10538190;28;19928;-84
2022/10/01 02:44:30;;;;;;;;;;;14.50;99.90;;;12.57;100.00;99930.50;10521587;28;19932;-84
2022/10/01 02:49:34;;;;;;;;;;;14.50;99.90;;;12.58;100.00;99928.66;10541415;28;20410;-83
2022/10/01 02:54:41;;;;;;;;;;;14.50;99.90;;;12.57;100.00;99933.19;10526621;28;19935;-84
2022/10/01 02:59:44;;;;;;;;;;;14.50;99.90;;;12.55;100.00;99931.72;10546021;28;20315;-84
2022/10/01 03:04:47;;;;;;;;;;;14.50;99.90;;;12.58;100.00;99934.00;10543504;28;19928;-84
2022/10/01 03:09:50;;;;;;;;;;;14.50;99.90;;;12.56;100.00;99910.22;10535504;28;20441;-84
2022/10/01 03:14:52;;;;;;;;;;;14.50;99.90;;;12.56;100.00;99912.88;10528741;28;19974;-86
2022/10/01 03:19:55;;;;;;;;;;;14.50;99.90;;;12.57;100.00;99933.19;10507277;28;19928;-86
2022/10/01 03:24:58;;;;;;;;;;;14.50;99.90;;;12.58;100.00;99934.00;10510535;28;19935;-85
2022/10/01 03:30:01;;;;;;;;;;;14.50;99.90;;;12.55;100.00;99929.88;10523794;28;19936;-84
2022/10/01 03:35:04;;;;;;;;;;;14.50;99.90;;;12.53;100.00;99934.59;10515211;28;19928;-84
2022/10/01 03:40:07;;;;;;;;;;;14.50;99.90;;;12.54;100.00;99951.41;10528334;28;19951;-84
2022/10/01 03:45:10;;;;;;;;;;;14.50;99.90;;;12.53;100.00;99965.72;10542352;28;19928;-84
2022/10/01 03:50:13;;;;;;;;;;;14.40;99.90;;;12.50;100.00;99979.44;10527195;28;20023;-84
2022/10/01 03:55:16;;;;;;;;;;;14.40;99.90;;;12.46;100.00;99970.97;10513068;28;19929;-85
2022/10/01 04:00:19;;;;;;;;;;;14.40;99.90;;;12.50;100.00;99961.59;10536011;28;20307;-87
2022/10/01 04:05:21;;;;;;;;;;;14.40;99.90;;;12.49;100.00;99951.97;10522669;28;19928;-86
2022/10/01 04:10:24;;;;;;;;;;;14.40;99.90;;;12.49;100.00;99951.97;10519409;28;19928;-86
2022/10/01 04:15:27;;;;;;;;;;;14.50;99.90;;;12.48;100.00;99955.63;10525328;28;19936;-86
2022/10/01 04:20:35;;;;;;;;;;;14.40;99.90;;;12.47;100.00;99934.47;10541034;28;20405;-86
2022/10/01 04:25:38;;;;;;;;;;;14.40;99.90;;;12.45;100.00;99934.66;10545013;28;20011;-86
2022/10/01 04:30:43;;;;;;;;;;;14.40;99.90;;;12.46;100.00;99936.31;10523676;28;19933;-85
2022/10/01 04:35:47;;;;;;;;;;;14.30;99.90;;;12.45;100.00;99934.66;10541389;28;20418;-85
2022/10/01 04:40:50;;;;;;;;;;;14.30;99.90;;;12.46;100.00;99946.97;10511844;28;20209;-84
2022/10/01 04:45:53;;;;;;;;;;;14.30;99.90;;;12.44;100.00;99938.34;10538109;28;19928;-85
2022/10/01 04:50:56;;;;;;;;;;;14.30;99.90;;;12.42;100.00;99935.06;10517822;28;19928;-85
2022/10/01 04:55:58;;;;;;;;;;;14.30;99.90;;;12.42;100.00;99940.41;10517504;28;19928;-85
2022/10/01 05:01:01;;;;;;;;;;;14.30;99.90;;;12.40;100.00;99941.56;10537458;28;19932;-85
2022/10/01 05:06:04;;;;;;;;;;;14.30;99.90;;;12.42;100.00;99945.72;10540999;28;19959;-85
2022/10/01 05:11:07;;;;;;;;;;;14.30;99.90;;;12.43;100.00;99941.22;10523385;28;19934;-85
2022/10/01 05:16:10;;;;;;;;;;;14.40;99.90;;;12.43;100.00;99942.03;10526069;28;20169;-85
2022/10/01 05:21:14;;;;;;;;;;;14.40;99.90;;;12.44;100.00;99949.00;10538900;28;19928;-86
2022/10/01 05:26:17;;;;;;;;;;;14.40;99.90;;;12.47;100.00;99953.13;10525359;28;20058;-85
2022/10/01 05:31:20;;;;;;;;;;;14.40;99.90;;;12.47;100.00;99964.63;10516525;28;19928;-85
2022/10/01 05:36:22;;;;;;;;;;;14.50;99.90;;;12.51;100.00;99971.25;10541237;28;20442;-86
2022/10/01 05:41:25;;;;;;;;;;;14.40;99.90;;;12.52;100.00;99977.41;10528370;28;19928;-86
2022/10/01 05:46:28;;;;;;;;;;;14.50;99.90;;;12.52;100.00;99964.91;10512306;28;19928;-85
2022/10/01 05:51:31;;;;;;;;;;;14.50;99.90;;;12.56;100.00;99966.19;10539191;28;20330;-85
2022/10/01 05:56:34;;;;;;;;;;;14.60;99.90;;;12.61;100.00;99960.31;10521319;28;20372;-85
2022/10/01 06:01:37;;;;;;;;;;;14.60;99.90;;;12.64;100.00;99969.75;10539457;28;19974;-85
2022/10/01 06:06:40;;;;;;;;;;;14.60;99.90;;;12.68;100.00;99969.19;10537898;28;19971;-85
2022/10/01 06:11:45;;;;;;;;;;;14.60;99.90;;;12.70;100.00;99950.34;10537501;28;19934;-85
2022/10/01 06:16:52;;;;;;;;;;;14.60;99.90;;;12.73;100.00;99928.66;10510615;28;19979;-87
2022/10/01 06:21:55;;;;;;;;;;;14.70;99.90;;;12.76;100.00;99930.94;10507478;28;19968;-88
2022/10/01 06:26:57;;;;;;;;;;;14.70;99.90;;;12.77;100.00;99911.25;10524996;28;19935;-87
2022/10/01 06:32:00;;;;;;;;;;;14.70;99.90;;;12.83;100.00;99900.69;10518990;28;19951;-87
2022/10/01 06:37:04;;;;;;;;;;;14.80;99.90;;;12.85;100.00;99903.13;10529587;28;20011;-87
2022/10/01 06:42:06;;;;;;;;;;;14.80;99.90;;;12.90;100.00;99903.41;10507611;28;19929;-86
2022/10/01 06:47:09;;;;;;;;;;;14.90;99.90;;;12.90;100.00;99905.25;10509503;28;19928;-86
2022/10/01 06:57:33;;;;;;;;;;;14.90;99.90;;;12.99;100.00;99923.59;10524485;28;19929;-85
2022/10/01 07:02:36;;;;;;;;;;;15.00;99.90;;;13.02;100.00;99920.56;10512286;28;20022;-85
2022/10/01 07:07:39;;;;;;;;;;;15.00;99.90;;;13.04;100.00;99928.34;10540486;28;19932;-85
2022/10/01 07:12:41;;;;;;;;;;;15.00;99.90;;;13.07;100.00;99934.16;10510833;28;19928;-85
2022/10/01 07:17:48;;;;;;;;;;;15.00;99.90;;;13.07;100.00;99930.63;10514027;28;19929;-85
2022/10/01 07:22:56;;;;;;;;;;;15.00;99.90;;;13.09;100.00;99921.44;10525186;28;19928;-87
2022/10/01 07:28:03;;;;;;;;;;;15.10;99.90;;;13.15;100.00;99927.84;10518396;28;19928;-87
2022/10/01 07:33:06;;;;;;;;;;;15.10;99.90;;;13.15;100.00;99911.84;10535645;28;20019;-87
2022/10/01 07:38:08;;;;;;;;;;;15.10;99.90;;;13.18;100.00;99903.44;10521732;28;19928;-86
2022/10/01 07:43:13;;;;;;;;;;;15.20;99.90;;;13.24;100.00;99891.22;10531055;28;19928;-86
2022/10/01 07:48:16;;;;;;;;;;;15.20;99.90;;;13.27;100.00;99899.66;10527416;28;19928;-86
2022/10/01 07:53:19;;;;;;;;;;;15.30;99.90;;;13.31;100.00;99892.94;10508568;28;20371;-86
2022/10/01 07:58:22;;;;;;;;;;;15.30;99.90;;;13.37;100.00;99901.97;10522684;28;20343;-85
2022/10/01 08:03:25;;;;;;;;;;;15.40;99.90;;;13.43;100.00;99905.72;10527719;28;19928;-85
2022/10/01 08:08:30;;;;;;;;;;;15.40;99.90;;;13.47;100.00;99907.00;10521128;28;19928;-85
2022/10/01 08:13:33;;;;;;;;;;;15.50;99.90;;;13.49;100.00;99905.78;10526441;28;19932;-85
2022/10/01 08:18:39;;;;;;;;;;;15.50;99.90;;;13.51;100.00;99902.94;10526756;28;20315;-85
2022/10/01 08:23:42;;;;;;;;;;;15.50;99.90;;;13.55;100.00;99899.66;10517564;28;20400;-85
2022/10/01 08:28:44;;;;;;;;;;;15.50;99.90;;;13.58;100.00;99898.47;10520988;28;19928;-85
2022/10/01 08:33:47;;;;;;;;;;;15.60;99.90;;;13.63;100.00;99907.53;10539471;28;19928;-85
2022/10/01 08:38:50;;;;;;;;;;;15.60;99.90;;;13.67;100.00;99905.28;10517295;28;20441;-84
2022/10/01 08:43:53;;;;;;;;;;;15.60;99.90;;;13.62;100.00;99878.38;10509585;28;19928;-85
2022/10/01 08:49:19;;;;;;;;;;;15.60;99.90;;;13.61;100.00;99869.53;10530475;28;19936;-85
2022/10/01 08:54:38;;;;;;;;;;;15.60;99.90;;;13.60;100.00;99864.38;10537523;28;19935;-86
2022/10/01 08:59:43;;;;;;;;;;;15.60;99.90;;;13.61;100.00;99861.53;10519339;28;19935;-85
2022/10/01 09:04:49;;;;;;;;;;;15.60;99.90;;;13.70;100.00;99853.34;10492740;28;19929;-85
2022/10/01 09:10:15;;;;;;;;;;;15.70;99.90;;;13.79;100.00;99878.88;10513038;28;19928;-84
2022/10/01 09:15:44;;;;;;;;;;;15.70;99.90;;;13.86;100.00;99866.41;10515553;28;20033;-85
2022/10/01 09:20:53;;;;;;;;;;;15.80;99.90;;;13.92;100.00;99862.94;10531681;28;19929;-85
2022/10/01 09:26:00;;;;;;;;;;;15.90;99.90;;;13.98;100.00;99859.47;10531592;28;19928;-85
2022/10/01 09:31:08;;;;;;;;;;;15.90;99.90;;;14.05;100.00;99836.28;10522397;28;20411;-85
2022/10/01 09:36:11;;;;;;;;;;;16.00;99.90;;;14.11;100.00;99832.81;10517387;28;19928;-85
2022/10/01 09:41:13;;;;;;;;;;;16.10;99.90;;;14.17;100.00;99833.88;10524915;28;20303;-84
2022/10/01 09:46:16;;;;;;;;;;;16.10;99.90;;;14.18;100.00;99835.50;10520728;28;19982;-84
2022/10/01 09:51:23;;;;;;;;;;;16.20;99.90;;;14.23;100.00;99817.03;10531810;28;19929;-84
2022/10/01 09:56:29;;;;;;;;;;;16.20;99.90;;;14.29;100.00;99823.41;10534106;28;19932;-84
2022/10/01 10:01:42;;;;;;;;;;;16.30;99.90;;;14.31;100.00;99826.72;10497502;28;20484;-84
2022/10/01 10:06:46;;;;;;;;;;;16.30;99.90;;;14.36;100.00;99826.94;10527238;28;20009;-84
2022/10/01 10:11:48;;;;;;;;;;;16.40;99.90;;;14.47;100.00;99813.00;10540062;28;20315;-84
2022/10/01 10:16:51;;;;;;;;;;;16.50;99.90;;;14.60;100.00;99802.34;10522101;28;19932;-84
2022/10/01 10:21:58;;;;;;;;;;;16.60;99.90;;;14.72;100.00;99794.53;10516824;28;19935;-84
2022/10/01 10:27:04;;;;;;;;;;;16.70;99.90;;;14.77;100.00;99777.88;10521094;28;20384;-84
2022/10/01 10:32:25;;;;;;;;;;;16.80;99.90;;;14.82;100.00;99776.22;10532269;28;19928;-83
2022/10/01 10:37:31;;;;;;;;;;;16.90;99.90;;;14.95;100.00;99775.41;10519919;28;19939;-84
2022/10/01 10:42:37;;;;;;;;;;;17.00;99.90;;;15.10;100.00;99759.94;10518158;28;19975;-83
2022/10/01 10:47:49;;;;;;;;;;;17.10;99.90;;;15.21;100.00;99755.81;10534916;28;20331;-83
2022/10/01 10:52:51;;;;;;;;;;;17.20;99.90;;;15.30;100.00;99754.56;10516281;28;20552;-83
2022/10/01 10:57:54;;;;;;;;;;;17.30;99.90;;;15.45;100.00;99757.81;10500821;28;19928;-83
2022/10/01 11:03:03;;;;;;;;;;;17.40;99.90;;;15.61;100.00;99737.78;10536963;28;19934;-83
2022/10/01 11:08:10;;;;;;;;;;;17.60;99.90;;;15.76;100.00;99716.94;10539915;28;19929;-83
2022/10/01 11:13:42;;;;;;;;;;;17.80;99.90;;;15.93;100.00;99705.72;10539189;28;19933;-83
2022/10/01 11:18:51;;;;;;;;;;;18.00;99.90;;;16.20;100.00;99696.50;10519933;28;20016;-84
2022/10/01 11:24:31;;;;;;;;;;;18.30;99.90;;;16.61;100.00;99687.09;10540283;28;20342;-83
2022/10/01 11:29:51;;;;;;;;;;;18.80;99.90;;;16.92;100.00;99688.13;10540829;28;20011;-84
2022/10/01 11:35:09;;;;;;;;;;;19.10;99.90;;;17.10;100.00;99670.16;10525522;28;19936;-83
2022/10/01 11:40:39;;;;;;;;;;;19.30;99.90;;;17.29;100.00;99673.66;10522180;28;19928;-82
2022/10/01 11:45:49;;;;;;;;;;;19.40;99.90;;;17.41;100.00;99644.19;10524763;28;19929;-83
2022/10/01 11:50:54;;;;;;;;;;;19.60;99.90;;;17.56;100.00;99654.53;10519008;28;19928;-83
2022/10/01 12:01:38;;;;;;;;;;;19.90;99.90;;;18.06;100.00;99630.91;10525011;28;19929;-83
2022/10/01 12:07:08;;;;;;;;;;;20.30;99.90;;;18.21;100.00;99626.97;10531296;28;20015;-83
2022/10/01 12:12:17;;;;;;;;;;;20.40;99.90;;;18.18;100.00;99622.88;10482134;28;19928;-82
2022/10/01 12:17:23;;;;;;;;;;;20.40;99.90;;;18.08;100.00;99614.53;10541523;28;19975;-82
2022/10/01 12:22:29;;;;;;;;;;;20.20;99.90;;;17.92;100.00;99616.03;10543305;28;19936;-83
2022/10/01 12:27:34;;;;;;;;;;;20.00;99.90;;;17.73;100.00;99614.44;10524762;28;19935;-83
2022/10/01 12:32:56;;;;;;;;;;;19.70;99.90;;;17.56;100.00;99609.66;10528228;28;19951;-83
2022/10/01 12:37:59;;;;;;;;;;;19.50;99.90;;;17.43;100.00;99592.94;10534386;28;20392;-82
2022/10/01 12:43:12;;;;;;;;;;;19.40;99.90;;;17.33;100.00;99591.63;10538696;28;19955;-82
2022/10/01 12:48:34;;;;;;;;;;;19.30;99.90;;;17.27;100.00;99594.34;10515989;28;19974;-83
2022/10/01 12:53:42;;;;;;;;;;;19.20;99.90;;;17.15;100.00;99596.97;10537425;28;19936;-83
2022/10/01 12:58:50;;;;;;;;;;;19.20;99.90;;;17.07;100.00;99608.03;10536826;28;19929;-83
2022/10/01 13:04:24;;;;;;;;;;;19.00;99.90;;;16.99;100.00;99616.41;10530073;28;20051;-83
2022/10/01 13:09:53;;;;;;;;;;;18.90;99.90;;;16.85;100.00;99602.28;10537226;28;19928;-82
2022/10/01 13:14:56;;;;;;;;;;;18.80;99.90;;;16.75;100.00;99596.63;10539656;28;19967;-83
2022/10/01 13:20:07;;;;;;;;;;;18.70;99.90;;;16.67;100.00;99573.53;10535135;28;19936;-83
2022/10/01 13:25:38;;;;;;;;;;;18.60;99.90;;;16.57;100.00;99551.81;10534008;28;19928;-82
2022/10/01 13:31:10;;;;;;;;;;;18.50;99.90;;;16.51;100.00;99560.75;10533148;28;19935;-82
2022/10/01 13:36:16;;;;;;;;;;;18.40;99.90;;;16.47;100.00;99546.94;10509045;28;20031;-82
2022/10/01 13:41:26;;;;;;;;;;;18.40;99.90;;;16.50;100.00;99543.00;10541393;28;19978;-82
2022/10/01 13:46:31;;;;;;;;;;;18.40;99.90;;;16.53;100.00;99542.56;10521518;28;19929;-82
2022/10/01 13:51:44;;;;;;;;;;;18.50;99.90;;;16.56;100.00;99539.44;10526261;28;19928;-81
2022/10/01 13:56:47;;;;;;;;;;;18.50;99.90;;;16.63;100.00;99534.81;10525900;28;19967;-82
2022/10/01 14:01:50;;;;;;;;;;;18.60;99.90;;;16.75;100.00;99522.31;10539574;28;20295;-82
2022/10/01 14:06:59;;;;;;;;;;;18.80;99.90;;;16.93;100.00;99518.00;10536918;28;19932;-82
2022/10/01 14:17:35;;;;;;;;;;;19.20;99.90;;;17.20;100.00;99523.81;10535721;28;19928;-82
2022/10/01 14:22:44;;;;;;;;;;;19.20;99.90;;;17.11;100.00;99531.38;10530559;28;19959;-82
2022/10/01 14:27:57;;;;;;;;;;;19.20;99.90;;;17.02;100.00;99520.13;10519485;28;20402;-82
2022/10/01 14:33:40;;;;;;;;;;;19.00;99.90;;;16.92;100.00;99519.03;10527037;28;19982;-83
2022/10/01 14:38:43;;;;;;;;;;;18.90;99.90;;;16.78;100.00;99505.75;10526538;28;19932;-83
2022/10/01 14:43:46;;;;;;;;;;;18.80;99.90;;;16.65;100.00;99515.81;10535069;28;19987;-82
2022/10/01 14:49:00;;;;;;;;;;;18.60;99.90;;;16.42;100.00;99506.56;10528264;28;19933;-82
2022/10/01 14:54:03;;;;;;;;;;;18.40;99.90;;;16.24;100.00;99514.59;10531524;28;19935;-82
2022/10/01 14:59:31;;;;;;;;;;;18.20;99.90;;;16.09;100.00;99514.94;10525695;28;19935;-82
2022/10/01 15:04:34;;;;;;;;;;;18.00;99.90;;;15.98;100.00;99515.66;10524903;28;19928;-82
2022/10/01 15:09:37;;;;;;;;;;;17.90;99.90;;;15.87;100.00;99525.22;10533261;28;20399;-82
2022/10/01 15:14:41;;;;;;;;;;;17.80;99.90;;;15.77;100.00;99530.25;10520567;28;19928;-82
2022/10/01 15:19:46;;;;;;;;;;;17.70;99.90;;;15.64;100.00;99528.47;10543486;28;19928;-82
2022/10/01 15:24:50;;;;;;;;;;;17.60;99.90;;;15.50;100.00;99532.25;10543283;28;19928;-82
2022/10/01 15:29:55;;;;;;;;;;;17.40;99.90;;;15.39;100.00;99527.59;10545219;28;19928;-82
2022/10/01 15:35:00;;;;;;;;;;;17.30;99.90;;;15.26;100.00;99532.00;10546529;28;19978;-82
2022/10/01 15:40:06;;;;;;;;;;;17.20;99.90;;;15.20;100.00;99532.84;10509392;28;19929;-82
2022/10/01 15:45:09;;;;;;;;;;;17.10;99.90;;;15.17;100.00;99544.00;10525311;28;20123;-82
2022/10/01 15:50:11;;;;;;;;;;;17.10;99.90;;;15.12;100.00;99538.47;10504025;28;19932;-82
2022/10/01 15:55:41;;;;;;;;;;;17.00;99.90;;;15.07;100.00;99546.31;10504991;28;19968;-82
2022/10/01 16:00:56;;;;;;;;;;;17.00;99.90;;;14.97;100.00;99541.41;10510566;28;19935;-82
2022/10/01 16:06:01;;;;;;;;;;;16.90;99.90;;;14.82;100.00;99538.19;10544566;28;19978;-81
2022/10/01 16:11:07;;;;;;;;;;;16.80;99.90;;;14.66;100.00;99534.09;10529275;28;20399;-82
2022/10/01 16:16:09;;;;;;;;;;;16.60;99.90;;;14.53;100.00;99536.00;10540200;28;19929;-81
2022/10/01 16:21:12;;;;;;;;;;;16.50;99.90;;;14.38;100.00;99544.22;10540943;28;19979;-82
2022/10/01 16:26:27;;;;;;;;;;;16.30;99.90;;;14.23;100.00;99543.63;10544753;28;19964;-81
2022/10/01 16:31:30;;;;;;;;;;;16.20;99.90;;;14.12;100.00;99532.53;10544787;28;19932;-81
2022/10/01 16:36:33;;;;;;;;;;;16.00;99.90;;;14.02;100.00;99537.47;10520014;28;19936;-81
2022/10/01 16:41:36;;;;;;;;;;;16.00;99.90;;;13.89;100.00;99542.81;10525913;28;20302;-82
2022/10/01 16:46:40;;;;;;;;;;;15.90;99.90;;;13.74;100.00;99550.22;10545522;28;19929;-81
2022/10/01 16:51:43;;;;;;;;;;;15.70;99.90;;;13.64;100.00;99551.41;10531052;28;19936;-81
2022/10/01 16:56:45;;;;;;;;;;;15.60;99.90;;;13.56;100.00;99551.63;10544118;28;20019;-81
2022/10/01 17:01:50;;;;;;;;;;;15.50;99.90;;;13.50;100.00;99555.09;10523685;28;20023;-81
2022/10/01 17:06:52;;;;;;;;;;;15.50;99.90;;;13.44;100.00;99558.59;10543204;28;19971;-81
2022/10/01 17:11:55;;;;;;;;;;;15.40;99.90;;;13.39;100.00;99563.69;10526962;28;19929;-81
2022/10/01 17:16:58;;;;;;;;;;;15.30;99.90;;;13.34;100.00;99556.28;10526131;28;19928;-81
2022/10/01 17:22:01;;;;;;;;;;;15.30;99.90;;;13.30;100.00;99551.56;10531082;28;19929;-80
2022/10/01 17:27:03;;;;;;;;;;;15.30;99.90;;;13.26;100.00;99548.47;10540706;28;20449;-81
2022/10/01 17:32:06;;;;;;;;;;;15.20;99.90;;;13.23;100.00;99559.53;10542598;28;19928;-81
2022/10/01 17:37:08;;;;;;;;;;;15.20;99.90;;;13.19;100.00;99558.25;10516256;28;20019;-81
2022/10/01 17:42:13;;;;;;;;;;;15.10;99.90;;;13.13;100.00;99569.72;10502267;28;19951;-81
2022/10/01 17:47:16;;;;;;;;;;;15.10;99.90;;;13.08;100.00;99572.19;10527033;28;20371;-81
2022/10/01 17:52:19;;;;;;;;;;;15.00;99.90;;;13.04;100.00;99577.09;10529360;28;19935;-80
2022/10/01 17:57:22;;;;;;;;;;;15.00;99.90;;;13.03;100.00;99575.44;10542535;28;20476;-81
2022/10/01 18:02:24;;;;;;;;;;;15.00;99.90;;;13.02;100.00;99570.31;10541060;28;20346;-81
2022/10/01 18:07:44;;;;;;;;;;;15.00;99.90;;;13.01;100.00;99560.66;10513687;28;19933;-81
2022/10/01 18:12:47;;;;;;;;;;;15.00;99.90;;;12.99;100.00;99584.03;10542921;28;19970;-81
2022/10/01 18:17:53;;;;;;;;;;;15.00;99.90;;;12.99;100.00;99600.03;10526230;28;19963;-81
2022/10/01 18:23:15;;;;;;;;;;;15.00;99.90;;;12.94;100.00;99591.81;10520914;28;20418;-82
2022/10/01 18:28:18;;;;;;;;;;;14.90;99.90;;;12.90;100.00;99596.72;10531722;28;19929;-81
2022/10/01 18:33:21;;;;;;;;;;;14.90;99.90;;;12.86;100.00;99590.13;10545975;28;19928;-81
2022/10/01 18:38:28;;;;;;;;;;;14.90;99.90;;;12.83;100.00;99587.84;10546731;28;19951;-81
2022/10/01 18:43:34;;;;;;;;;;;14.80;99.90;;;12.80;100.00;99602.41;10529923;28;20425;-81
2022/10/01 18:49:13;;;;;;;;;;;14.80;99.90;;;12.76;100.00;99616.31;10531600;28;19928;-81
2022/10/01 18:54:43;;;;;;;;;;;14.80;99.90;;;12.75;100.00;99617.34;10437535;28;20411;-80
2022/10/01 19:00:03;;;;;;;;;;;14.80;99.90;;;12.73;100.00;99620.22;10506201;28;19928;-82
2022/10/01 19:05:23;;;;;;;;;;;14.80;99.90;;;12.72;100.00;99620.41;10505312;28;19928;-81
2022/10/01 19:10:40;;;;;;;;;;;14.70;99.90;;;12.75;100.00;99628.00;10547426;28;19935;-81
2022/10/01 19:16:15;;;;;;;;;;;14.70;99.90;;;12.77;100.00;99624.13;10546570;28;20311;-81
2022/10/01 19:21:54;;;;;;;;;;;14.80;99.90;;;12.80;100.00;99620.25;10510014;28;20391;-81
2022/10/01 19:27:01;;;;;;;;;;;14.80;99.90;;;12.80;100.00;99620.25;10547310;28;19979;-81
2022/10/01 19:32:15;;;;;;;;;;;14.80;99.90;;;12.78;100.00;99628.44;10542070;28;19928;-81
2022/10/01 19:37:28;;;;;;;;;;;14.80;99.90;;;12.78;100.00;99627.63;10532849;28;20303;-81
2022/10/01 19:42:38;;;;;;;;;;;14.80;99.90;;;12.79;100.00;99637.28;10544234;28;19951;-81
2022/10/01 19:47:47;;;;;;;;;;;14.80;99.90;;;12.81;100.00;99640.56;10541064;28;20436;-81
2022/10/01 19:52:52;;;;;;;;;;;14.80;99.90;;;12.80;100.00;99649.56;10532637;28;19932;-80
2022/10/01 19:57:55;;;;;;;;;;;14.80;99.90;;;12.80;100.00;99647.72;10529490;28;20364;-80
2022/10/01 20:03:17;;;;;;;;;;;14.80;99.90;;;12.81;99.97;99659.22;10522204;28;19928;-81
2022/10/01 20:08:32;;;;;;;;;;;14.80;99.90;;;12.80;99.54;99654.91;10536764;28;20410;-81
2022/10/01 20:14:04;;;;;;;;;;;14.80;99.90;;;12.79;99.90;99655.94;10542880;28;19928;-81
2022/10/01 20:19:26;;;;;;;;;;;14.80;99.90;;;12.75;99.93;99647.50;10530786;28;20385;-81
2022/10/01 20:24:53;;;;;;;;;;;14.80;99.90;;;12.75;100.00;99644.81;10537656;28;19935;-81
2022/10/01 20:30:13;;;;;;;;;;;14.70;99.90;;;12.72;99.89;99639.06;10537865;28;19928;-81
2022/10/01 20:35:40;;;;;;;;;;;14.70;99.90;;;12.69;99.35;99652.78;10531199;28;19928;-81
2022/10/01 20:40:49;;;;;;;;;;;14.70;99.90;;;12.65;98.76;99662.19;10520557;28;19935;-81
2022/10/01 20:45:52;;;;;;;;;;;14.60;99.90;;;12.63;97.89;99670.38;10524520;28;19936;-81
2022/10/01 20:51:11;;;;;;;;;;;14.60;99.90;;;12.58;97.67;99681.59;10537125;28;19928;-81
2022/10/01 20:56:21;;;;;;;;;;;14.60;99.90;;;12.57;97.27;99703.94;10531966;28;20001;-81
2022/10/01 21:01:29;;;;;;;;;;;14.60;99.90;;;12.54;97.10;99704.34;10524503;28;19929;-81
2022/10/01 21:06:42;;;;;;;;;;;14.50;99.90;;;12.52;97.47;99708.22;10539587;28;19951;-81
2022/10/01 21:11:57;;;;;;;;;;;14.50;99.90;;;12.46;97.18;99707.13;10541575;28;19928;-81
2022/10/01 21:17:18;;;;;;;;;;;14.50;99.90;;;12.41;97.34;99719.38;10525621;28;19936;-81
2022/10/01 21:22:48;;;;;;;;;;;14.40;99.90;;;12.40;97.23;99723.06;10539799;28;19928;-81
2022/10/01 21:28:00;;;;;;;;;;;14.40;99.90;;;12.34;97.35;99735.31;10540052;28;20787;-81
2022/10/01 21:33:13;;;;;;;;;;;14.40;99.90;;;12.28;97.23;99738.75;10544400;28;19933;-81
2022/10/01 21:38:39;;;;;;;;;;;14.30;99.90;;;12.23;97.56;99730.47;10535224;28;19967;-82
2022/10/01 21:44:22;;;;;;;;;;;14.20;99.90;;;12.20;97.75;99733.53;10542044;28;19982;-82
2022/10/01 21:49:24;;;;;;;;;;;14.20;99.90;;;12.16;98.14;99729.59;10539461;28;20026;-82
2022/10/01 21:54:51;;;;;;;;;;;14.20;99.90;;;12.07;98.05;99739.56;10534649;28;20304;-81
2022/10/01 22:00:27;;;;;;;;;;;14.10;99.90;;;12.01;98.29;99735.81;10516134;28;19935;-81
2022/10/01 22:06:02;;;;;;;;;;;14.10;99.90;;;11.95;98.29;99736.56;10515168;28;19928;-81
2022/10/01 22:11:20;;;;;;;;;;;14.00;99.90;;;11.88;98.25;99734.84;10498021;28;19974;-82
2022/10/01 22:16:27;;;;;;;;;;;13.90;99.90;;;11.84;98.58;99713.09;10520187;28;19971;-82
2022/10/01 22:21:34;;;;;;;;;;;13.90;99.90;;;11.76;98.94;99731.81;10525194;28;19933;-81
2022/10/01 22:26:43;;;;;;;;;;;13.80;99.90;;;11.66;99.21;99737.41;10537598;28;19928;-82
2022/10/01 22:31:48;;;;;;;;;;;13.80;99.90;;;11.55;99.54;99735.22;10509502;28;19935;-81
2022/10/01 22:37:13;;;;;;;;;;;13.60;99.90;;;11.51;98.99;99750.75;10521902;28;19928;-81
2022/10/01 22:42:50;;;;;;;;;;;13.60;99.90;;;11.51;98.37;99768.53;10533005;28;20308;-81
2022/10/01 22:47:56;;;;;;;;;;;13.50;99.90;;;11.49;98.07;99763.41;10505739;28;19928;-81
2022/10/01 22:53:32;;;;;;;;;;;13.50;99.90;;;11.47;98.09;99759.28;10536293;28;20461;-82
2022/10/01 22:58:41;;;;;;;;;;;13.50;99.90;;;11.44;98.42;99760.47;10465142;28;19928;-82
2022/10/01 23:04:03;;;;;;;;;;;13.50;99.90;;;11.45;98.33;99762.09;10504933;28;19979;-81
2022/10/01 23:09:14;;;;;;;;;;;13.50;99.90;;;11.42;98.54;99773.13;10544443;28;19934;-82
2022/10/01 23:14:21;;;;;;;;;;;13.40;99.90;;;11.41;98.45;99781.31;10526690;28;19936;-81
2022/10/01 23:19:58;;;;;;;;;;;13.40;99.90;;;11.38;98.75;99776.34;10522947;28;19958;-81
2022/10/01 23:25:04;;;;;;;;;;;13.40;99.90;;;11.35;98.72;99768.72;10526485;28;19928;-81
2022/10/01 23:30:13;;;;;;;;;;;13.40;99.90;;;11.30;99.15;99777.25;10529072;28;19928;-81